sensor_id;sensor_type;location;lat;lon;timestamp;temperature;humidity
22224;DHT22;11281;52.194;21.006;2022-11-15T00:02:21;6.00;99.90
22224;DHT22;11281;52.194;21.006;2022-11-15T00:06:43;6.10;99.90
22224;DHT22;11281;52.194;21.006;2022-11-15T00:11:04;6.10;99.90
22224;DHT22;11281;52.194;21.006;2022-11-15T00:15:26;6.10;99.90
22224;DHT22;11281;52.194;21.006;2022-11-15T00:19:48;6.10;99.90
22224;DHT22;11281;52.194;21.006;2022-11-15T00:24:10;6.10;99.90
22224;DHT22;11281;52.194;21.006;2022-11-15T00:28:32;6.10;99.90
22224;DHT22;11281;52.194;21.006;2022-11-15T00:32:54;6.10;99.90
22224;DHT22;11281;52.194;21.006;2022-11-15T00:37:16;6.10;99.90
22224;DHT22;11281;52.194;21.006;2022-11-15T00:41:38;6.10;99.90
22224;DHT22;11281;52.194;21.006;2022-11-15T00:45:59;6.10;99.90
22224;DHT22;11281;52.194;21.006;2022-11-15T00:50:21;6.10;99.90
22224;DHT22;11281;52.194;21.006;2022-11-15T00:54:43;6.10;99.90
22224;DHT22;11281;52.194;21.006;2022-11-15T00:59:05;5.90;99.90
22224;DHT22;11281;52.194;21.006;2022-11-15T01:03:26;5.90;99.90
22224;DHT22;11281;52.194;21.006;2022-11-15T01:07:52;5.90;99.90
22224;DHT22;11281;52.194;21.006;2022-11-15T01:12:14;5.80;99.90
22224;DHT22;11281;52.194;21.006;2022-11-15T01:16:36;5.80;99.90
22224;DHT22;11281;52.194;21.006;2022-11-15T01:20:58;5.70;99.90
22224;DHT22;11281;52.194;21.006;2022-11-15T01:25:19;5.70;99.90
22224;DHT22;11281;52.194;21.006;2022-11-15T01:29:41;5.70;99.90
22224;DHT22;11281;52.194;21.006;2022-11-15T01:34:03;5.80;99.90
22224;DHT22;11281;52.194;21.006;2022-11-15T01:38:24;5.80;99.90
22224;DHT22;11281;52.194;21.006;2022-11-15T01:42:46;5.80;99.90
22224;DHT22;11281;52.194;21.006;2022-11-15T01:51:35;5.80;99.90
22224;DHT22;11281;52.194;21.006;2022-11-15T01:55:57;5.80;99.90
22224;DHT22;11281;52.194;21.006;2022-11-15T02:00:20;5.80;99.90
22224;DHT22;11281;52.194;21.006;2022-11-15T02:04:46;5.80;99.90
22224;DHT22;11281;52.194;21.006;2022-11-15T02:09:09;5.90;99.90
22224;DHT22;11281;52.194;21.006;2022-11-15T02:13:31;5.80;99.90
22224;DHT22;11281;52.194;21.006;2022-11-15T02:18:15;5.90;99.90
22224;DHT22;11281;52.194;21.006;2022-11-15T02:32:25;5.80;99.90
22224;DHT22;11281;52.194;21.006;2022-11-15T02:37:06;5.80;99.90
22224;DHT22;11281;52.194;21.006;2022-11-15T02:42:01;5.80;99.90
22224;DHT22;11281;52.194;21.006;2022-11-15T02:46:41;5.80;99.90
22224;DHT22;11281;52.194;21.006;2022-11-15T02:51:34;5.90;99.90
22224;DHT22;11281;52.194;21.006;2022-11-15T02:55:56;5.90;99.90
22224;DHT22;11281;52.194;21.006;2022-11-15T03:00:20;5.80;99.90
22224;DHT22;11281;52.194;21.006;2022-11-15T03:10:07;5.80;99.90
22224;DHT22;11281;52.194;21.006;2022-11-15T03:14:39;5.70;99.90
22224;DHT22;11281;52.194;21.006;2022-11-15T03:23:33;5.80;99.90
22224;DHT22;11281;52.194;21.006;2022-11-15T03:27:59;5.90;99.90
22224;DHT22;11281;52.194;21.006;2022-11-15T03:32:31;5.90;99.90
22224;DHT22;11281;52.194;21.006;2022-11-15T03:36:56;5.90;99.90
22224;DHT22;11281;52.194;21.006;2022-11-15T03:46:32;5.90;99.90
22224;DHT22;11281;52.194;21.006;2022-11-15T03:50:58;5.90;99.90
22224;DHT22;11281;52.194;21.006;2022-11-15T03:55:21;5.90;99.90
22224;DHT22;11281;52.194;21.006;2022-11-15T03:59:43;5.90;99.90
22224;DHT22;11281;52.194;21.006;2022-11-15T04:04:05;5.90;99.90
22224;DHT22;11281;52.194;21.006;2022-11-15T04:08:26;5.80;99.90
22224;DHT22;11281;52.194;21.006;2022-11-15T04:12:48;5.80;99.90
22224;DHT22;11281;52.194;21.006;2022-11-15T04:17:10;5.80;99.90
22224;DHT22;11281;52.194;21.006;2022-11-15T04:21:31;5.80;99.90
22224;DHT22;11281;52.194;21.006;2022-11-15T04:26:16;5.80;99.90
22224;DHT22;11281;52.194;21.006;2022-11-15T04:30:40;5.90;99.90
22224;DHT22;11281;52.194;21.006;2022-11-15T04:35:02;5.80;99.90
22224;DHT22;11281;52.194;21.006;2022-11-15T04:39:25;6.00;99.90
22224;DHT22;11281;52.194;21.006;2022-11-15T04:43:46;5.90;99.90
22224;DHT22;11281;52.194;21.006;2022-11-15T04:48:08;5.80;99.90
22224;DHT22;11281;52.194;21.006;2022-11-15T04:52:30;5.90;99.90
22224;DHT22;11281;52.194;21.006;2022-11-15T04:56:51;5.90;99.90
22224;DHT22;11281;52.194;21.006;2022-11-15T05:01:14;5.90;99.90
22224;DHT22;11281;52.194;21.006;2022-11-15T05:05:36;5.90;99.90
22224;DHT22;11281;52.194;21.006;2022-11-15T05:09:58;5.90;99.90
22224;DHT22;11281;52.194;21.006;2022-11-15T05:14:19;5.90;99.90
22224;DHT22;11281;52.194;21.006;2022-11-15T05:18:41;5.80;99.90
22224;DHT22;11281;52.194;21.006;2022-11-15T05:23:03;5.90;99.90
22224;DHT22;11281;52.194;21.006;2022-11-15T05:27:25;5.90;99.90
22224;DHT22;11281;52.194;21.006;2022-11-15T05:31:47;5.80;99.90
22224;DHT22;11281;52.194;21.006;2022-11-15T05:36:29;5.90;99.90
22224;DHT22;11281;52.194;21.006;2022-11-15T05:40:55;5.80;99.90
22224;DHT22;11281;52.194;21.006;2022-11-15T05:45:16;5.80;99.90
22224;DHT22;11281;52.194;21.006;2022-11-15T05:49:40;5.80;99.90
22224;DHT22;11281;52.194;21.006;2022-11-15T05:54:04;5.90;99.90
22224;DHT22;11281;52.194;21.006;2022-11-15T05:58:26;5.80;99.90
22224;DHT22;11281;52.194;21.006;2022-11-15T06:02:48;5.70;99.90
22224;DHT22;11281;52.194;21.006;2022-11-15T06:07:10;5.90;99.90
22224;DHT22;11281;52.194;21.006;2022-11-15T06:11:31;5.80;99.90
22224;DHT22;11281;52.194;21.006;2022-11-15T06:15:55;5.90;99.90
22224;DHT22;11281;52.194;21.006;2022-11-15T06:20:18;5.80;99.90
22224;DHT22;11281;52.194;21.006;2022-11-15T06:24:39;5.70;99.90
22224;DHT22;11281;52.194;21.006;2022-11-15T06:29:03;5.70;99.90
22224;DHT22;11281;52.194;21.006;2022-11-15T06:33:25;5.90;99.90
22224;DHT22;11281;52.194;21.006;2022-11-15T06:37:47;5.70;99.90
22224;DHT22;11281;52.194;21.006;2022-11-15T06:42:09;5.70;99.90
22224;DHT22;11281;52.194;21.006;2022-11-15T06:46:31;5.70;99.90
22224;DHT22;11281;52.194;21.006;2022-11-15T06:50:53;5.80;99.90
22224;DHT22;11281;52.194;21.006;2022-11-15T06:55:16;5.80;99.90
22224;DHT22;11281;52.194;21.006;2022-11-15T06:59:38;5.70;99.90
22224;DHT22;11281;52.194;21.006;2022-11-15T07:03:59;5.70;99.90
22224;DHT22;11281;52.194;21.006;2022-11-15T07:08:23;5.80;99.90
22224;DHT22;11281;52.194;21.006;2022-11-15T07:12:48;5.90;99.90
22224;DHT22;11281;52.194;21.006;2022-11-15T07:17:10;5.90;99.90
22224;DHT22;11281;52.194;21.006;2022-11-15T07:21:32;5.80;99.90
22224;DHT22;11281;52.194;21.006;2022-11-15T07:25:57;5.80;99.90
22224;DHT22;11281;52.194;21.006;2022-11-15T07:30:19;5.90;99.90
22224;DHT22;11281;52.194;21.006;2022-11-15T07:34:41;5.80;99.90
22224;DHT22;11281;52.194;21.006;2022-11-15T07:39:03;5.80;99.90
22224;DHT22;11281;52.194;21.006;2022-11-15T07:43:24;5.60;99.90
22224;DHT22;11281;52.194;21.006;2022-11-15T07:47:49;5.70;99.90
22224;DHT22;11281;52.194;21.006;2022-11-15T07:52:12;5.60;99.90
22224;DHT22;11281;52.194;21.006;2022-11-15T07:56:34;5.70;99.90
22224;DHT22;11281;52.194;21.006;2022-11-15T08:00:55;5.70;99.90
22224;DHT22;11281;52.194;21.006;2022-11-15T08:05:17;5.60;99.90
22224;DHT22;11281;52.194;21.006;2022-11-15T08:09:39;5.70;99.90
22224;DHT22;11281;52.194;21.006;2022-11-15T08:14:01;5.60;99.90
22224;DHT22;11281;52.194;21.006;2022-11-15T08:18:22;5.70;99.90
22224;DHT22;11281;52.194;21.006;2022-11-15T08:22:44;5.90;99.90
22224;DHT22;11281;52.194;21.006;2022-11-15T08:27:06;5.80;99.90
22224;DHT22;11281;52.194;21.006;2022-11-15T08:31:36;5.80;99.90
22224;DHT22;11281;52.194;21.006;2022-11-15T08:35:59;5.80;99.90
22224;DHT22;11281;52.194;21.006;2022-11-15T08:40:21;5.90;99.90
22224;DHT22;11281;52.194;21.006;2022-11-15T08:44:43;5.90;99.90
22224;DHT22;11281;52.194;21.006;2022-11-15T08:49:05;5.90;99.90
22224;DHT22;11281;52.194;21.006;2022-11-15T08:53:27;5.80;99.90
22224;DHT22;11281;52.194;21.006;2022-11-15T08:57:48;5.80;99.90
22224;DHT22;11281;52.194;21.006;2022-11-15T09:02:12;5.80;99.90
22224;DHT22;11281;52.194;21.006;2022-11-15T09:06:35;5.70;99.90
22224;DHT22;11281;52.194;21.006;2022-11-15T09:10:57;5.70;99.90
22224;DHT22;11281;52.194;21.006;2022-11-15T09:15:19;6.00;99.90
22224;DHT22;11281;52.194;21.006;2022-11-15T09:19:41;5.70;99.90
22224;DHT22;11281;52.194;21.006;2022-11-15T09:24:02;5.80;99.90
22224;DHT22;11281;52.194;21.006;2022-11-15T09:28:25;6.00;99.90
22224;DHT22;11281;52.194;21.006;2022-11-15T09:32:47;6.00;99.90
22224;DHT22;11281;52.194;21.006;2022-11-15T09:37:08;6.10;99.90
22224;DHT22;11281;52.194;21.006;2022-11-15T09:51:35;5.80;99.90
22224;DHT22;11281;52.194;21.006;2022-11-15T09:56:20;6.10;99.90
22224;DHT22;11281;52.194;21.006;2022-11-15T10:00:47;5.90;99.90
22224;DHT22;11281;52.194;21.006;2022-11-15T10:05:14;6.00;99.90
22224;DHT22;11281;52.194;21.006;2022-11-15T10:09:50;6.00;99.90
22224;DHT22;11281;52.194;21.006;2022-11-15T10:14:18;6.20;99.90
22224;DHT22;11281;52.194;21.006;2022-11-15T10:18:52;5.90;99.90
22224;DHT22;11281;52.194;21.006;2022-11-15T10:23:23;6.00;99.90
22224;DHT22;11281;52.194;21.006;2022-11-15T10:27:54;6.00;99.90
22224;DHT22;11281;52.194;21.006;2022-11-15T10:32:41;6.10;99.90
22224;DHT22;11281;52.194;21.006;2022-11-15T10:37:04;6.00;99.90
22224;DHT22;11281;52.194;21.006;2022-11-15T10:45:54;6.10;99.90
22224;DHT22;11281;52.194;21.006;2022-11-15T10:50:28;6.40;99.90
22224;DHT22;11281;52.194;21.006;2022-11-15T10:55:02;6.20;99.90
22224;DHT22;11281;52.194;21.006;2022-11-15T10:59:33;6.10;99.90
22224;DHT22;11281;52.194;21.006;2022-11-15T11:08:25;6.30;99.90
22224;DHT22;11281;52.194;21.006;2022-11-15T11:12:46;6.10;99.90
22224;DHT22;11281;52.194;21.006;2022-11-15T11:36:32;6.20;99.90
22224;DHT22;11281;52.194;21.006;2022-11-15T11:51:07;6.30;99.90
22224;DHT22;11281;52.194;21.006;2022-11-15T11:55:49;6.10;99.90
22224;DHT22;11281;52.194;21.006;2022-11-15T12:00:22;6.40;99.90
22224;DHT22;11281;52.194;21.006;2022-11-15T12:04:52;6.30;99.90
22224;DHT22;11281;52.194;21.006;2022-11-15T12:09:22;6.20;99.90
22224;DHT22;11281;52.194;21.006;2022-11-15T12:19:04;6.10;99.90
22224;DHT22;11281;52.194;21.006;2022-11-15T12:23:32;6.20;99.90
22224;DHT22;11281;52.194;21.006;2022-11-15T12:32:33;6.30;99.90
22224;DHT22;11281;52.194;21.006;2022-11-15T12:36:57;6.10;99.90
22224;DHT22;11281;52.194;21.006;2022-11-15T12:41:20;6.10;99.90
22224;DHT22;11281;52.194;21.006;2022-11-15T12:45:44;6.20;99.90
22224;DHT22;11281;52.194;21.006;2022-11-15T12:50:12;6.30;99.90
22224;DHT22;11281;52.194;21.006;2022-11-15T12:59:06;6.20;99.90
22224;DHT22;11281;52.194;21.006;2022-11-15T13:03:29;6.00;99.90
22224;DHT22;11281;52.194;21.006;2022-11-15T13:07:58;6.20;99.90
22224;DHT22;11281;52.194;21.006;2022-11-15T13:16:47;6.20;99.90
22224;DHT22;11281;52.194;21.006;2022-11-15T13:21:22;6.20;99.90
22224;DHT22;11281;52.194;21.006;2022-11-15T13:26:14;6.10;99.90
22224;DHT22;11281;52.194;21.006;2022-11-15T13:30:52;6.10;99.90
22224;DHT22;11281;52.194;21.006;2022-11-15T13:35:27;6.20;99.90
22224;DHT22;11281;52.194;21.006;2022-11-15T13:39:49;6.10;99.90
22224;DHT22;11281;52.194;21.006;2022-11-15T13:44:40;6.00;99.90
22224;DHT22;11281;52.194;21.006;2022-11-15T13:49:08;6.00;99.90
22224;DHT22;11281;52.194;21.006;2022-11-15T13:53:33;6.00;99.90
22224;DHT22;11281;52.194;21.006;2022-11-15T13:58:01;6.00;99.90
22224;DHT22;11281;52.194;21.006;2022-11-15T14:02:30;5.90;99.90
22224;DHT22;11281;52.194;21.006;2022-11-15T14:06:56;6.00;99.90
22224;DHT22;11281;52.194;21.006;2022-11-15T14:11:20;6.00;99.90
22224;DHT22;11281;52.194;21.006;2022-11-15T14:15:41;5.90;99.90
22224;DHT22;11281;52.194;21.006;2022-11-15T14:20:20;5.80;99.90
22224;DHT22;11281;52.194;21.006;2022-11-15T14:29:29;5.90;99.90
22224;DHT22;11281;52.194;21.006;2022-11-15T14:33:51;5.70;99.90
22224;DHT22;11281;52.194;21.006;2022-11-15T14:38:13;5.60;99.90
22224;DHT22;11281;52.194;21.006;2022-11-15T14:42:35;5.60;99.90
22224;DHT22;11281;52.194;21.006;2022-11-15T14:46:57;5.60;99.90
22224;DHT22;11281;52.194;21.006;2022-11-15T14:51:18;5.60;99.90
22224;DHT22;11281;52.194;21.006;2022-11-15T14:55:40;5.70;99.90
22224;DHT22;11281;52.194;21.006;2022-11-15T15:00:03;5.60;99.90
22224;DHT22;11281;52.194;21.006;2022-11-15T15:04:26;5.60;99.90
22224;DHT22;11281;52.194;21.006;2022-11-15T15:08:47;5.50;99.90
22224;DHT22;11281;52.194;21.006;2022-11-15T15:13:22;5.60;99.90
22224;DHT22;11281;52.194;21.006;2022-11-15T15:17:45;5.60;99.90
22224;DHT22;11281;52.194;21.006;2022-11-15T15:22:18;5.60;99.90
22224;DHT22;11281;52.194;21.006;2022-11-15T15:26:40;5.60;99.90
22224;DHT22;11281;52.194;21.006;2022-11-15T15:31:02;5.60;99.90
22224;DHT22;11281;52.194;21.006;2022-11-15T15:35:28;5.60;99.90
22224;DHT22;11281;52.194;21.006;2022-11-15T15:39:53;5.60;99.90
22224;DHT22;11281;52.194;21.006;2022-11-15T15:44:15;5.50;99.90
22224;DHT22;11281;52.194;21.006;2022-11-15T15:48:37;5.60;99.90
22224;DHT22;11281;52.194;21.006;2022-11-15T15:53:02;5.40;99.90
22224;DHT22;11281;52.194;21.006;2022-11-15T15:57:25;5.40;99.90
22224;DHT22;11281;52.194;21.006;2022-11-15T16:01:47;5.30;99.90
22224;DHT22;11281;52.194;21.006;2022-11-15T16:10:56;5.40;99.90
22224;DHT22;11281;52.194;21.006;2022-11-15T16:15:19;5.40;99.90
22224;DHT22;11281;52.194;21.006;2022-11-15T16:19:41;5.40;99.90
22224;DHT22;11281;52.194;21.006;2022-11-15T16:24:03;5.40;99.90
22224;DHT22;11281;52.194;21.006;2022-11-15T16:28:31;5.40;99.90
22224;DHT22;11281;52.194;21.006;2022-11-15T16:32:53;5.30;99.90
22224;DHT22;11281;52.194;21.006;2022-11-15T16:37:22;5.40;99.90
22224;DHT22;11281;52.194;21.006;2022-11-15T16:41:44;5.50;99.90
22224;DHT22;11281;52.194;21.006;2022-11-15T16:46:20;5.50;99.90
22224;DHT22;11281;52.194;21.006;2022-11-15T16:50:42;5.40;99.90
22224;DHT22;11281;52.194;21.006;2022-11-15T16:55:04;5.40;99.90
22224;DHT22;11281;52.194;21.006;2022-11-15T16:59:26;5.30;99.90
22224;DHT22;11281;52.194;21.006;2022-11-15T17:03:48;5.30;99.90
22224;DHT22;11281;52.194;21.006;2022-11-15T17:08:10;5.30;99.90
22224;DHT22;11281;52.194;21.006;2022-11-15T17:12:33;5.30;99.90
22224;DHT22;11281;52.194;21.006;2022-11-15T17:16:55;5.30;99.90
22224;DHT22;11281;52.194;21.006;2022-11-15T17:21:20;5.30;99.90
22224;DHT22;11281;52.194;21.006;2022-11-15T17:25:42;5.30;99.90
22224;DHT22;11281;52.194;21.006;2022-11-15T17:30:05;5.20;99.90
22224;DHT22;11281;52.194;21.006;2022-11-15T17:34:27;5.20;99.90
22224;DHT22;11281;52.194;21.006;2022-11-15T17:38:49;5.30;99.90
22224;DHT22;11281;52.194;21.006;2022-11-15T17:43:13;5.30;99.90
22224;DHT22;11281;52.194;21.006;2022-11-15T17:47:34;5.30;99.90
22224;DHT22;11281;52.194;21.006;2022-11-15T17:51:56;5.20;99.90
22224;DHT22;11281;52.194;21.006;2022-11-15T17:56:20;5.20;99.90
22224;DHT22;11281;52.194;21.006;2022-11-15T18:00:45;5.20;99.90
22224;DHT22;11281;52.194;21.006;2022-11-15T18:05:07;5.20;99.90
22224;DHT22;11281;52.194;21.006;2022-11-15T18:09:29;5.20;99.90
22224;DHT22;11281;52.194;21.006;2022-11-15T18:13:56;5.20;99.90
22224;DHT22;11281;52.194;21.006;2022-11-15T18:18:19;5.10;99.90
22224;DHT22;11281;52.194;21.006;2022-11-15T18:22:40;5.00;99.90
22224;DHT22;11281;52.194;21.006;2022-11-15T18:27:03;5.10;99.90
22224;DHT22;11281;52.194;21.006;2022-11-15T18:31:28;5.10;99.90
22224;DHT22;11281;52.194;21.006;2022-11-15T18:35:58;5.20;99.90
22224;DHT22;11281;52.194;21.006;2022-11-15T18:40:23;5.10;99.90
22224;DHT22;11281;52.194;21.006;2022-11-15T18:44:45;5.10;99.90
22224;DHT22;11281;52.194;21.006;2022-11-15T18:49:09;5.00;99.90
22224;DHT22;11281;52.194;21.006;2022-11-15T18:53:33;5.00;99.90
22224;DHT22;11281;52.194;21.006;2022-11-15T18:57:55;5.00;99.90
22224;DHT22;11281;52.194;21.006;2022-11-15T19:02:17;5.00;99.90
22224;DHT22;11281;52.194;21.006;2022-11-15T19:06:41;5.00;99.90
22224;DHT22;11281;52.194;21.006;2022-11-15T19:15:25;5.10;99.90
22224;DHT22;11281;52.194;21.006;2022-11-15T19:19:47;5.10;99.90
22224;DHT22;11281;52.194;21.006;2022-11-15T19:24:09;5.10;99.90
22224;DHT22;11281;52.194;21.006;2022-11-15T19:28:31;5.10;99.90
22224;DHT22;11281;52.194;21.006;2022-11-15T19:32:53;5.10;99.90
22224;DHT22;11281;52.194;21.006;2022-11-15T19:37:15;5.10;99.90
22224;DHT22;11281;52.194;21.006;2022-11-15T19:41:39;5.10;99.90
22224;DHT22;11281;52.194;21.006;2022-11-15T19:46:04;5.10;99.90
22224;DHT22;11281;52.194;21.006;2022-11-15T19:50:26;5.00;99.90
22224;DHT22;11281;52.194;21.006;2022-11-15T19:54:48;5.10;99.90
22224;DHT22;11281;52.194;21.006;2022-11-15T19:59:10;5.10;99.90
22224;DHT22;11281;52.194;21.006;2022-11-15T20:03:34;5.10;99.90
22224;DHT22;11281;52.194;21.006;2022-11-15T20:07:56;5.00;99.90
22224;DHT22;11281;52.194;21.006;2022-11-15T20:12:18;5.10;99.90
22224;DHT22;11281;52.194;21.006;2022-11-15T20:16:40;5.10;99.90
22224;DHT22;11281;52.194;21.006;2022-11-15T20:21:02;5.10;99.90
22224;DHT22;11281;52.194;21.006;2022-11-15T20:25:26;5.00;99.90
22224;DHT22;11281;52.194;21.006;2022-11-15T20:29:48;5.00;99.90
22224;DHT22;11281;52.194;21.006;2022-11-15T20:34:12;5.20;99.90
22224;DHT22;11281;52.194;21.006;2022-11-15T20:38:33;5.10;99.90
22224;DHT22;11281;52.194;21.006;2022-11-15T20:42:55;5.10;99.90
22224;DHT22;11281;52.194;21.006;2022-11-15T20:47:17;5.10;99.90
22224;DHT22;11281;52.194;21.006;2022-11-15T20:51:38;5.20;99.90
22224;DHT22;11281;52.194;21.006;2022-11-15T20:56:06;5.20;99.90
22224;DHT22;11281;52.194;21.006;2022-11-15T21:00:33;5.20;99.90
22224;DHT22;11281;52.194;21.006;2022-11-15T21:04:54;5.10;99.90
22224;DHT22;11281;52.194;21.006;2022-11-15T21:09:16;5.20;99.90
22224;DHT22;11281;52.194;21.006;2022-11-15T21:13:56;5.20;99.90
22224;DHT22;11281;52.194;21.006;2022-11-15T21:18:18;5.30;99.90
22224;DHT22;11281;52.194;21.006;2022-11-15T21:22:40;5.20;99.90
22224;DHT22;11281;52.194;21.006;2022-11-15T21:27:01;5.20;99.90
22224;DHT22;11281;52.194;21.006;2022-11-15T21:31:23;5.20;99.90
22224;DHT22;11281;52.194;21.006;2022-11-15T21:35:45;5.20;99.90
22224;DHT22;11281;52.194;21.006;2022-11-15T21:40:07;5.20;99.90
22224;DHT22;11281;52.194;21.006;2022-11-15T21:44:29;5.30;99.90
22224;DHT22;11281;52.194;21.006;2022-11-15T21:48:52;5.20;99.90
22224;DHT22;11281;52.194;21.006;2022-11-15T21:53:13;5.20;99.90
22224;DHT22;11281;52.194;21.006;2022-11-15T21:57:35;5.20;99.90
22224;DHT22;11281;52.194;21.006;2022-11-15T22:01:57;5.30;99.90
22224;DHT22;11281;52.194;21.006;2022-11-15T22:06:37;5.30;99.90
22224;DHT22;11281;52.194;21.006;2022-11-15T22:10:59;5.20;99.90
22224;DHT22;11281;52.194;21.006;2022-11-15T22:15:21;5.20;99.90
22224;DHT22;11281;52.194;21.006;2022-11-15T22:19:42;5.20;99.90
22224;DHT22;11281;52.194;21.006;2022-11-15T22:24:04;5.20;99.90
22224;DHT22;11281;52.194;21.006;2022-11-15T22:28:27;5.30;99.90
22224;DHT22;11281;52.194;21.006;2022-11-15T22:32:50;5.30;99.90
22224;DHT22;11281;52.194;21.006;2022-11-15T22:37:12;5.20;99.90
22224;DHT22;11281;52.194;21.006;2022-11-15T22:41:33;5.20;99.90
22224;DHT22;11281;52.194;21.006;2022-11-15T22:45:59;5.20;99.90
22224;DHT22;11281;52.194;21.006;2022-11-15T22:50:22;5.20;99.90
22224;DHT22;11281;52.194;21.006;2022-11-15T22:54:44;5.20;99.90
22224;DHT22;11281;52.194;21.006;2022-11-15T22:59:06;5.20;99.90
22224;DHT22;11281;52.194;21.006;2022-11-15T23:03:28;5.30;99.90
22224;DHT22;11281;52.194;21.006;2022-11-15T23:07:51;5.20;99.90
22224;DHT22;11281;52.194;21.006;2022-11-15T23:12:13;5.20;99.90
22224;DHT22;11281;52.194;21.006;2022-11-15T23:16:54;5.30;99.90
22224;DHT22;11281;52.194;21.006;2022-11-15T23:21:31;5.30;99.90
22224;DHT22;11281;52.194;21.006;2022-11-15T23:26:12;5.30;99.90
22224;DHT22;11281;52.194;21.006;2022-11-15T23:30:35;5.30;99.90
22224;DHT22;11281;52.194;21.006;2022-11-15T23:35:16;5.30;99.90
22224;DHT22;11281;52.194;21.006;2022-11-15T23:39:38;5.30;99.90
22224;DHT22;11281;52.194;21.006;2022-11-15T23:44:00;5.30;99.90
22224;DHT22;11281;52.194;21.006;2022-11-15T23:48:22;5.30;99.90
22224;DHT22;11281;52.194;21.006;2022-11-15T23:52:44;5.30;99.90
22224;DHT22;11281;52.194;21.006;2022-11-15T23:57:05;5.30;99.90
